sensor_id;sensor_type;location;lat;lon;timestamp;P1;durP1;ratioP1;P2;durP2;ratioP2
68072;SDS011;54862;51.502;7.446;2023-04-01T00:00:54;4.45;;;1.60;;
68072;SDS011;54862;51.502;7.446;2023-04-01T00:03:20;2.95;;;1.70;;
68072;SDS011;54862;51.502;7.446;2023-04-01T00:05:47;4.22;;;1.58;;
68072;SDS011;54862;51.502;7.446;2023-04-01T00:08:15;6.30;;;1.90;;
68072;SDS011;54862;51.502;7.446;2023-04-01T00:10:41;2.78;;;1.58;;
68072;SDS011;54862;51.502;7.446;2023-04-01T00:13:08;6.15;;;1.92;;
68072;SDS011;54862;51.502;7.446;2023-04-01T00:15:34;2.33;;;1.60;;
68072;SDS011;54862;51.502;7.446;2023-04-01T00:18:00;5.50;;;1.60;;
68072;SDS011;54862;51.502;7.446;2023-04-01T00:20:26;3.53;;;1.98;;
68072;SDS011;54862;51.502;7.446;2023-04-01T00:22:53;3.97;;;1.75;;
68072;SDS011;54862;51.502;7.446;2023-04-01T00:25:19;6.05;;;1.80;;
68072;SDS011;54862;51.502;7.446;2023-04-01T00:27:45;3.42;;;1.73;;
68072;SDS011;54862;51.502;7.446;2023-04-01T00:30:12;2.28;;;1.77;;
68072;SDS011;54862;51.502;7.446;2023-04-01T00:32:40;4.18;;;1.90;;
68072;SDS011;54862;51.502;7.446;2023-04-01T00:35:08;3.45;;;1.63;;
68072;SDS011;54862;51.502;7.446;2023-04-01T00:37:37;4.40;;;1.92;;
68072;SDS011;54862;51.502;7.446;2023-04-01T00:40:05;3.60;;;1.70;;
68072;SDS011;54862;51.502;7.446;2023-04-01T00:42:32;3.20;;;1.60;;
68072;SDS011;54862;51.502;7.446;2023-04-01T00:44:58;3.15;;;1.80;;
68072;SDS011;54862;51.502;7.446;2023-04-01T00:47:26;4.55;;;2.10;;
68072;SDS011;54862;51.502;7.446;2023-04-01T00:49:55;4.53;;;1.67;;
68072;SDS011;54862;51.502;7.446;2023-04-01T00:52:24;4.85;;;1.95;;
68072;SDS011;54862;51.502;7.446;2023-04-01T00:54:53;2.88;;;1.80;;
68072;SDS011;54862;51.502;7.446;2023-04-01T00:57:23;3.53;;;1.90;;
68072;SDS011;54862;51.502;7.446;2023-04-01T00:59:52;2.75;;;1.70;;
68072;SDS011;54862;51.502;7.446;2023-04-01T01:02:21;6.68;;;2.00;;
68072;SDS011;54862;51.502;7.446;2023-04-01T01:04:47;4.95;;;2.03;;
68072;SDS011;54862;51.502;7.446;2023-04-01T01:12:46;2.65;;;1.70;;
68072;SDS011;54862;51.502;7.446;2023-04-01T01:15:22;4.53;;;1.70;;
68072;SDS011;54862;51.502;7.446;2023-04-01T01:20:32;7.68;;;2.20;;
68072;SDS011;54862;51.502;7.446;2023-04-01T01:31:00;2.67;;;1.75;;
68072;SDS011;54862;51.502;7.446;2023-04-01T01:36:11;1.77;;;1.67;;
68072;SDS011;54862;51.502;7.446;2023-04-01T01:38:38;1.70;;;1.60;;
68072;SDS011;54862;51.502;7.446;2023-04-01T01:41:05;3.30;;;1.90;;
68072;SDS011;54862;51.502;7.446;2023-04-01T01:43:33;5.80;;;2.00;;
68072;SDS011;54862;51.502;7.446;2023-04-01T01:46:08;3.50;;;1.95;;
68072;SDS011;54862;51.502;7.446;2023-04-01T01:48:35;2.90;;;1.80;;
68072;SDS011;54862;51.502;7.446;2023-04-01T01:51:05;2.58;;;1.90;;
68072;SDS011;54862;51.502;7.446;2023-04-01T01:53:31;5.50;;;2.00;;
68072;SDS011;54862;51.502;7.446;2023-04-01T01:55:57;4.10;;;1.95;;
68072;SDS011;54862;51.502;7.446;2023-04-01T01:58:27;4.00;;;2.00;;
68072;SDS011;54862;51.502;7.446;2023-04-01T02:00:55;2.45;;;1.70;;
68072;SDS011;54862;51.502;7.446;2023-04-01T02:03:23;3.90;;;1.95;;
68072;SDS011;54862;51.502;7.446;2023-04-01T02:05:50;3.92;;;1.88;;
68072;SDS011;54862;51.502;7.446;2023-04-01T02:08:21;2.55;;;1.70;;
68072;SDS011;54862;51.502;7.446;2023-04-01T02:11:01;5.20;;;2.03;;
68072;SDS011;54862;51.502;7.446;2023-04-01T02:13:31;2.58;;;1.90;;
68072;SDS011;54862;51.502;7.446;2023-04-01T02:15:59;2.80;;;2.00;;
68072;SDS011;54862;51.502;7.446;2023-04-01T02:18:28;2.35;;;1.85;;
68072;SDS011;54862;51.502;7.446;2023-04-01T02:20:54;2.88;;;1.90;;
68072;SDS011;54862;51.502;7.446;2023-04-01T02:23:21;2.05;;;1.80;;
68072;SDS011;54862;51.502;7.446;2023-04-01T02:25:47;4.63;;;1.95;;
68072;SDS011;54862;51.502;7.446;2023-04-01T02:28:13;3.95;;;2.00;;
68072;SDS011;54862;51.502;7.446;2023-04-01T02:30:44;3.08;;;1.70;;
68072;SDS011;54862;51.502;7.446;2023-04-01T02:33:10;1.77;;;1.55;;
68072;SDS011;54862;51.502;7.446;2023-04-01T02:35:37;2.10;;;1.70;;
68072;SDS011;54862;51.502;7.446;2023-04-01T02:38:05;4.55;;;1.83;;
68072;SDS011;54862;51.502;7.446;2023-04-01T02:40:41;2.00;;;1.67;;
68072;SDS011;54862;51.502;7.446;2023-04-01T02:43:07;3.47;;;1.67;;
68072;SDS011;54862;51.502;7.446;2023-04-01T02:45:33;3.22;;;1.80;;
68072;SDS011;54862;51.502;7.446;2023-04-01T02:48:00;2.30;;;1.65;;
68072;SDS011;54862;51.502;7.446;2023-04-01T02:50:28;2.58;;;1.75;;
68072;SDS011;54862;51.502;7.446;2023-04-01T02:52:56;3.55;;;1.65;;
68072;SDS011;54862;51.502;7.446;2023-04-01T02:55:22;3.15;;;1.80;;
68072;SDS011;54862;51.502;7.446;2023-04-01T02:57:50;3.53;;;1.58;;
68072;SDS011;54862;51.502;7.446;2023-04-01T03:00:16;2.45;;;1.58;;
68072;SDS011;54862;51.502;7.446;2023-04-01T03:02:43;2.92;;;1.80;;
68072;SDS011;54862;51.502;7.446;2023-04-01T03:05:09;2.97;;;1.50;;
68072;SDS011;54862;51.502;7.446;2023-04-01T03:07:35;2.17;;;1.52;;
68072;SDS011;54862;51.502;7.446;2023-04-01T03:10:01;2.42;;;1.50;;
68072;SDS011;54862;51.502;7.446;2023-04-01T03:12:27;1.60;;;1.50;;
68072;SDS011;54862;51.502;7.446;2023-04-01T03:14:53;2.00;;;1.55;;
68072;SDS011;54862;51.502;7.446;2023-04-01T03:17:19;1.92;;;1.60;;
68072;SDS011;54862;51.502;7.446;2023-04-01T03:19:45;1.55;;;1.45;;
68072;SDS011;54862;51.502;7.446;2023-04-01T03:22:11;1.42;;;1.35;;
68072;SDS011;54862;51.502;7.446;2023-04-01T03:24:40;1.50;;;1.35;;
68072;SDS011;54862;51.502;7.446;2023-04-01T03:27:08;3.35;;;1.63;;
68072;SDS011;54862;51.502;7.446;2023-04-01T03:29:34;1.73;;;1.52;;
68072;SDS011;54862;51.502;7.446;2023-04-01T03:32:00;2.38;;;1.60;;
68072;SDS011;54862;51.502;7.446;2023-04-01T03:34:26;2.15;;;1.52;;
68072;SDS011;54862;51.502;7.446;2023-04-01T03:36:52;1.60;;;1.50;;
68072;SDS011;54862;51.502;7.446;2023-04-01T03:39:18;2.05;;;1.50;;
68072;SDS011;54862;51.502;7.446;2023-04-01T03:41:47;1.60;;;1.50;;
68072;SDS011;54862;51.502;7.446;2023-04-01T03:44:13;1.98;;;1.40;;
68072;SDS011;54862;51.502;7.446;2023-04-01T03:46:39;2.17;;;1.50;;
68072;SDS011;54862;51.502;7.446;2023-04-01T03:49:06;1.50;;;1.40;;
68072;SDS011;54862;51.502;7.446;2023-04-01T03:51:36;2.35;;;1.60;;
68072;SDS011;54862;51.502;7.446;2023-04-01T03:54:02;1.88;;;1.48;;
68072;SDS011;54862;51.502;7.446;2023-04-01T03:56:28;3.17;;;1.40;;
68072;SDS011;54862;51.502;7.446;2023-04-01T03:58:54;2.03;;;1.40;;
68072;SDS011;54862;51.502;7.446;2023-04-01T04:01:21;1.92;;;1.40;;
68072;SDS011;54862;51.502;7.446;2023-04-01T04:03:52;2.53;;;1.60;;
68072;SDS011;54862;51.502;7.446;2023-04-01T04:06:18;1.20;;;1.20;;
68072;SDS011;54862;51.502;7.446;2023-04-01T04:08:44;1.60;;;1.50;;
68072;SDS011;54862;51.502;7.446;2023-04-01T04:11:13;1.40;;;1.30;;
68072;SDS011;54862;51.502;7.446;2023-04-01T04:13:41;1.75;;;1.40;;
68072;SDS011;54862;51.502;7.446;2023-04-01T04:16:07;1.40;;;1.30;;
68072;SDS011;54862;51.502;7.446;2023-04-01T04:18:34;2.63;;;1.50;;
68072;SDS011;54862;51.502;7.446;2023-04-01T04:21:03;1.83;;;1.50;;
68072;SDS011;54862;51.502;7.446;2023-04-01T04:23:29;2.72;;;1.70;;
68072;SDS011;54862;51.502;7.446;2023-04-01T04:26:00;1.85;;;1.52;;
68072;SDS011;54862;51.502;7.446;2023-04-01T04:28:29;3.10;;;1.55;;
68072;SDS011;54862;51.502;7.446;2023-04-01T04:30:55;2.28;;;1.55;;
68072;SDS011;54862;51.502;7.446;2023-04-01T04:33:21;1.60;;;1.50;;
68072;SDS011;54862;51.502;7.446;2023-04-01T04:35:47;3.72;;;1.90;;
68072;SDS011;54862;51.502;7.446;2023-04-01T04:38:14;2.88;;;1.73;;
68072;SDS011;54862;51.502;7.446;2023-04-01T04:40:40;5.13;;;1.98;;
68072;SDS011;54862;51.502;7.446;2023-04-01T04:43:06;3.22;;;1.85;;
68072;SDS011;54862;51.502;7.446;2023-04-01T04:45:32;3.10;;;2.00;;
68072;SDS011;54862;51.502;7.446;2023-04-01T04:48:01;4.72;;;1.80;;
68072;SDS011;54862;51.502;7.446;2023-04-01T04:50:27;2.28;;;1.90;;
68072;SDS011;54862;51.502;7.446;2023-04-01T04:52:53;3.97;;;2.20;;
68072;SDS011;54862;51.502;7.446;2023-04-01T04:55:19;3.33;;;2.00;;
68072;SDS011;54862;51.502;7.446;2023-04-01T04:57:48;4.10;;;2.10;;
68072;SDS011;54862;51.502;7.446;2023-04-01T05:00:14;6.07;;;2.47;;
68072;SDS011;54862;51.502;7.446;2023-04-01T05:02:42;5.35;;;2.13;;
68072;SDS011;54862;51.502;7.446;2023-04-01T05:05:10;4.50;;;2.30;;
68072;SDS011;54862;51.502;7.446;2023-04-01T05:07:36;3.33;;;2.13;;
68072;SDS011;54862;51.502;7.446;2023-04-01T05:10:03;5.43;;;2.30;;
68072;SDS011;54862;51.502;7.446;2023-04-01T05:12:29;4.88;;;2.38;;
68072;SDS011;54862;51.502;7.446;2023-04-01T05:14:55;4.05;;;2.33;;
68072;SDS011;54862;51.502;7.446;2023-04-01T05:17:21;3.40;;;2.22;;
68072;SDS011;54862;51.502;7.446;2023-04-01T05:19:47;3.33;;;2.20;;
68072;SDS011;54862;51.502;7.446;2023-04-01T05:22:13;3.10;;;2.08;;
68072;SDS011;54862;51.502;7.446;2023-04-01T05:24:39;2.25;;;2.00;;
68072;SDS011;54862;51.502;7.446;2023-04-01T05:27:05;5.43;;;2.30;;
68072;SDS011;54862;51.502;7.446;2023-04-01T05:29:31;3.72;;;2.13;;
68072;SDS011;54862;51.502;7.446;2023-04-01T05:32:00;4.28;;;2.17;;
68072;SDS011;54862;51.502;7.446;2023-04-01T05:34:26;5.70;;;2.10;;
68072;SDS011;54862;51.502;7.446;2023-04-01T05:36:52;5.22;;;2.28;;
68072;SDS011;54862;51.502;7.446;2023-04-01T05:39:18;3.20;;;2.08;;
68072;SDS011;54862;51.502;7.446;2023-04-01T05:41:44;3.83;;;1.90;;
68072;SDS011;54862;51.502;7.446;2023-04-01T05:44:11;3.33;;;1.90;;
68072;SDS011;54862;51.502;7.446;2023-04-01T05:46:37;3.20;;;2.03;;
68072;SDS011;54862;51.502;7.446;2023-04-01T05:49:03;3.53;;;2.15;;
68072;SDS011;54862;51.502;7.446;2023-04-01T05:51:29;3.28;;;2.03;;
68072;SDS011;54862;51.502;7.446;2023-04-01T05:53:55;1.80;;;1.70;;
68072;SDS011;54862;51.502;7.446;2023-04-01T05:56:21;3.20;;;1.80;;
68072;SDS011;54862;51.502;7.446;2023-04-01T05:58:48;3.58;;;1.90;;
68072;SDS011;54862;51.502;7.446;2023-04-01T06:01:16;2.88;;;2.00;;
68072;SDS011;54862;51.502;7.446;2023-04-01T06:03:44;4.10;;;2.05;;
68072;SDS011;54862;51.502;7.446;2023-04-01T06:06:12;2.78;;;1.88;;
68072;SDS011;54862;51.502;7.446;2023-04-01T06:08:40;3.42;;;2.20;;
68072;SDS011;54862;51.502;7.446;2023-04-01T06:11:16;4.13;;;2.05;;
68072;SDS011;54862;51.502;7.446;2023-04-01T06:19:03;3.25;;;1.75;;
68072;SDS011;54862;51.502;7.446;2023-04-01T06:29:27;1.77;;;1.63;;
68072;SDS011;54862;51.502;7.446;2023-04-01T06:34:27;1.85;;;1.70;;
68072;SDS011;54862;51.502;7.446;2023-04-01T06:41:58;3.13;;;1.80;;
68072;SDS011;54862;51.502;7.446;2023-04-01T06:47:04;2.55;;;1.70;;
68072;SDS011;54862;51.502;7.446;2023-04-01T06:54:52;3.13;;;1.70;;
68072;SDS011;54862;51.502;7.446;2023-04-01T06:57:20;2.25;;;1.70;;
68072;SDS011;54862;51.502;7.446;2023-04-01T06:59:47;4.03;;;1.80;;
68072;SDS011;54862;51.502;7.446;2023-04-01T07:02:25;3.28;;;1.90;;
68072;SDS011;54862;51.502;7.446;2023-04-01T07:04:55;2.35;;;1.80;;
68072;SDS011;54862;51.502;7.446;2023-04-01T07:07:24;2.75;;;1.70;;
68072;SDS011;54862;51.502;7.446;2023-04-01T07:09:54;3.78;;;1.80;;
68072;SDS011;54862;51.502;7.446;2023-04-01T07:12:36;2.67;;;1.67;;
68072;SDS011;54862;51.502;7.446;2023-04-01T07:15:09;1.98;;;1.70;;
68072;SDS011;54862;51.502;7.446;2023-04-01T07:17:39;2.60;;;1.65;;
68072;SDS011;54862;51.502;7.446;2023-04-01T07:20:13;4.20;;;1.52;;
68072;SDS011;54862;51.502;7.446;2023-04-01T07:23:00;2.00;;;1.60;;
68072;SDS011;54862;51.502;7.446;2023-04-01T07:25:31;2.85;;;1.80;;
68072;SDS011;54862;51.502;7.446;2023-04-01T07:28:04;4.20;;;1.73;;
68072;SDS011;54862;51.502;7.446;2023-04-01T07:30:35;3.13;;;1.70;;
68072;SDS011;54862;51.502;7.446;2023-04-01T07:33:09;2.13;;;1.70;;
68072;SDS011;54862;51.502;7.446;2023-04-01T07:40:55;2.88;;;1.73;;
68072;SDS011;54862;51.502;7.446;2023-04-01T07:43:49;2.65;;;1.80;;
68072;SDS011;54862;51.502;7.446;2023-04-01T07:46:26;4.13;;;1.92;;
68072;SDS011;54862;51.502;7.446;2023-04-01T07:49:01;3.85;;;1.98;;
68072;SDS011;54862;51.502;7.446;2023-04-01T07:51:51;3.53;;;2.10;;
68072;SDS011;54862;51.502;7.446;2023-04-01T07:57:12;3.90;;;2.10;;
68072;SDS011;54862;51.502;7.446;2023-04-01T08:08:03;3.65;;;2.00;;
68072;SDS011;54862;51.502;7.446;2023-04-01T08:10:14;2.60;;;2.00;;
68072;SDS011;54862;51.502;7.446;2023-04-01T08:15:49;4.50;;;1.83;;
68072;SDS011;54862;51.502;7.446;2023-04-01T08:21:31;4.53;;;1.90;;
68072;SDS011;54862;51.502;7.446;2023-04-01T08:23:51;3.72;;;2.15;;
68072;SDS011;54862;51.502;7.446;2023-04-01T08:28:44;4.40;;;2.22;;
68072;SDS011;54862;51.502;7.446;2023-04-01T08:33:41;3.90;;;2.25;;
68072;SDS011;54862;51.502;7.446;2023-04-01T08:36:19;4.55;;;1.80;;
68072;SDS011;54862;51.502;7.446;2023-04-01T08:39:02;4.32;;;2.17;;
68072;SDS011;54862;51.502;7.446;2023-04-01T08:49:09;3.60;;;1.88;;
68072;SDS011;54862;51.502;7.446;2023-04-01T08:51:53;3.42;;;1.95;;
68072;SDS011;54862;51.502;7.446;2023-04-01T08:56:59;3.70;;;2.05;;
68072;SDS011;54862;51.502;7.446;2023-04-01T09:28:10;5.85;;;2.80;;
68072;SDS011;54862;51.502;7.446;2023-04-01T09:38:31;5.93;;;2.97;;
68072;SDS011;54862;51.502;7.446;2023-04-01T09:41:03;7.00;;;2.80;;
68072;SDS011;54862;51.502;7.446;2023-04-01T10:01:51;8.45;;;3.88;;
68072;SDS011;54862;51.502;7.446;2023-04-01T10:12:15;10.55;;;4.55;;
68072;SDS011;54862;51.502;7.446;2023-04-01T10:52:09;12.15;;;5.90;;
68072;SDS011;54862;51.502;7.446;2023-04-01T10:54:41;12.25;;;5.85;;
68072;SDS011;54862;51.502;7.446;2023-04-01T10:57:14;11.25;;;6.13;;
68072;SDS011;54862;51.502;7.446;2023-04-01T11:07:40;10.13;;;4.57;;
68072;SDS011;54862;51.502;7.446;2023-04-01T11:23:01;9.50;;;4.55;;
68072;SDS011;54862;51.502;7.446;2023-04-01T11:33:19;10.88;;;5.38;;
68072;SDS011;54862;51.502;7.446;2023-04-01T11:35:52;10.65;;;4.70;;
68072;SDS011;54862;51.502;7.446;2023-04-01T11:51:50;9.38;;;4.45;;
68072;SDS011;54862;51.502;7.446;2023-04-01T12:02:31;10.18;;;5.13;;
68072;SDS011;54862;51.502;7.446;2023-04-01T12:07:50;11.77;;;5.20;;
68072;SDS011;54862;51.502;7.446;2023-04-01T12:12:59;10.90;;;5.07;;
68072;SDS011;54862;51.502;7.446;2023-04-01T12:31:02;10.57;;;5.18;;
68072;SDS011;54862;51.502;7.446;2023-04-01T12:36:18;10.48;;;5.22;;
68072;SDS011;54862;51.502;7.446;2023-04-01T12:41:32;8.93;;;4.50;;
68072;SDS011;54862;51.502;7.446;2023-04-01T12:46:41;9.35;;;4.50;;
68072;SDS011;54862;51.502;7.446;2023-04-01T13:10:27;10.90;;;6.00;;
68072;SDS011;54862;51.502;7.446;2023-04-01T13:13:06;11.13;;;5.57;;
68072;SDS011;54862;51.502;7.446;2023-04-01T13:28:38;13.25;;;6.45;;
68072;SDS011;54862;51.502;7.446;2023-04-01T13:38:45;12.90;;;6.32;;
68072;SDS011;54862;51.502;7.446;2023-04-01T13:43:47;15.05;;;6.50;;
68072;SDS011;54862;51.502;7.446;2023-04-01T13:46:28;15.20;;;7.43;;
68072;SDS011;54862;51.502;7.446;2023-04-01T13:59:43;11.93;;;6.18;;
68072;SDS011;54862;51.502;7.446;2023-04-01T14:22:37;12.87;;;7.30;;
68072;SDS011;54862;51.502;7.446;2023-04-01T14:25:29;12.95;;;6.03;;
68072;SDS011;54862;51.502;7.446;2023-04-01T14:35:49;12.25;;;6.22;;
68072;SDS011;54862;51.502;7.446;2023-04-01T14:46:23;11.10;;;5.65;;
68072;SDS011;54862;51.502;7.446;2023-04-01T14:48:57;10.23;;;5.45;;
68072;SDS011;54862;51.502;7.446;2023-04-01T14:59:04;10.88;;;5.80;;
68072;SDS011;54862;51.502;7.446;2023-04-01T15:12:11;11.85;;;5.72;;
68072;SDS011;54862;51.502;7.446;2023-04-01T15:27:45;13.20;;;6.70;;
68072;SDS011;54862;51.502;7.446;2023-04-01T15:49:11;16.95;;;8.98;;
68072;SDS011;54862;51.502;7.446;2023-04-01T15:57:13;19.20;;;10.18;;
68072;SDS011;54862;51.502;7.446;2023-04-01T16:04:59;19.58;;;10.55;;
68072;SDS011;54862;51.502;7.446;2023-04-01T16:10:07;18.73;;;9.98;;
68072;SDS011;54862;51.502;7.446;2023-04-01T16:12:46;22.77;;;11.20;;
68072;SDS011;54862;51.502;7.446;2023-04-01T16:18:05;19.38;;;9.63;;
68072;SDS011;54862;51.502;7.446;2023-04-01T16:20:52;20.83;;;10.50;;
68072;SDS011;54862;51.502;7.446;2023-04-01T16:28:42;19.77;;;9.25;;
68072;SDS011;54862;51.502;7.446;2023-04-01T16:31:16;18.98;;;9.07;;
68072;SDS011;54862;51.502;7.446;2023-04-01T16:33:49;16.52;;;8.40;;
68072;SDS011;54862;51.502;7.446;2023-04-01T16:39:08;17.70;;;8.90;;
68072;SDS011;54862;51.502;7.446;2023-04-01T16:41:36;15.75;;;8.32;;
68072;SDS011;54862;51.502;7.446;2023-04-01T16:44:23;14.95;;;7.85;;
68072;SDS011;54862;51.502;7.446;2023-04-01T16:46:58;15.20;;;7.80;;
68072;SDS011;54862;51.502;7.446;2023-04-01T17:12:33;11.52;;;6.75;;
68072;SDS011;54862;51.502;7.446;2023-04-01T17:15:05;14.00;;;6.82;;
68072;SDS011;54862;51.502;7.446;2023-04-01T17:17:45;13.60;;;6.72;;
68072;SDS011;54862;51.502;7.446;2023-04-01T17:20:31;12.10;;;6.95;;
68072;SDS011;54862;51.502;7.446;2023-04-01T17:25:39;13.85;;;7.53;;
68072;SDS011;54862;51.502;7.446;2023-04-01T17:30:45;14.90;;;8.13;;
68072;SDS011;54862;51.502;7.446;2023-04-01T17:35:51;14.70;;;7.60;;
68072;SDS011;54862;51.502;7.446;2023-04-01T17:43:39;13.68;;;7.82;;
68072;SDS011;54862;51.502;7.446;2023-04-01T17:46:54;16.88;;;8.82;;
68072;SDS011;54862;51.502;7.446;2023-04-01T18:02:27;15.85;;;8.68;;
68072;SDS011;54862;51.502;7.446;2023-04-01T18:10:25;20.00;;;10.27;;
68072;SDS011;54862;51.502;7.446;2023-04-01T18:18:09;19.73;;;10.57;;
68072;SDS011;54862;51.502;7.446;2023-04-01T18:20:58;20.15;;;10.55;;
68072;SDS011;54862;51.502;7.446;2023-04-01T18:23:29;18.17;;;10.65;;
68072;SDS011;54862;51.502;7.446;2023-04-01T18:26:20;19.90;;;10.65;;
68072;SDS011;54862;51.502;7.446;2023-04-01T18:28:52;20.20;;;10.82;;
68072;SDS011;54862;51.502;7.446;2023-04-01T18:31:22;22.73;;;11.50;;
68072;SDS011;54862;51.502;7.446;2023-04-01T18:36:40;22.67;;;11.57;;
68072;SDS011;54862;51.502;7.446;2023-04-01T18:42:06;21.95;;;11.25;;
68072;SDS011;54862;51.502;7.446;2023-04-01T18:44:49;22.58;;;11.65;;
68072;SDS011;54862;51.502;7.446;2023-04-01T18:49:52;22.77;;;12.52;;
68072;SDS011;54862;51.502;7.446;2023-04-01T18:52:20;23.48;;;11.85;;
68072;SDS011;54862;51.502;7.446;2023-04-01T18:55:14;23.45;;;12.60;;
68072;SDS011;54862;51.502;7.446;2023-04-01T18:57:53;23.60;;;12.05;;
68072;SDS011;54862;51.502;7.446;2023-04-01T19:02:53;24.45;;;12.70;;
68072;SDS011;54862;51.502;7.446;2023-04-01T19:05:29;22.33;;;12.02;;
68072;SDS011;54862;51.502;7.446;2023-04-01T19:07:56;26.58;;;12.35;;
68072;SDS011;54862;51.502;7.446;2023-04-01T19:13:32;24.88;;;12.77;;
68072;SDS011;54862;51.502;7.446;2023-04-01T19:18:47;23.95;;;11.80;;
68072;SDS011;54862;51.502;7.446;2023-04-01T19:26:14;23.77;;;11.73;;
68072;SDS011;54862;51.502;7.446;2023-04-01T19:28:54;25.02;;;11.98;;
68072;SDS011;54862;51.502;7.446;2023-04-01T19:36:53;18.13;;;9.45;;
68072;SDS011;54862;51.502;7.446;2023-04-01T19:41:50;23.10;;;10.13;;
68072;SDS011;54862;51.502;7.446;2023-04-01T19:46:46;19.45;;;8.73;;
68072;SDS011;54862;51.502;7.446;2023-04-01T19:56:50;9.98;;;5.07;;
68072;SDS011;54862;51.502;7.446;2023-04-01T19:59:19;9.77;;;4.85;;
68072;SDS011;54862;51.502;7.446;2023-04-01T20:04:19;10.48;;;5.18;;
68072;SDS011;54862;51.502;7.446;2023-04-01T20:12:08;11.05;;;5.68;;
68072;SDS011;54862;51.502;7.446;2023-04-01T20:14:41;10.13;;;5.47;;
68072;SDS011;54862;51.502;7.446;2023-04-01T20:19:39;11.90;;;5.85;;
68072;SDS011;54862;51.502;7.446;2023-04-01T20:22:20;10.55;;;5.53;;
68072;SDS011;54862;51.502;7.446;2023-04-01T20:24:50;11.82;;;5.47;;
68072;SDS011;54862;51.502;7.446;2023-04-01T20:27:19;10.85;;;5.65;;
68072;SDS011;54862;51.502;7.446;2023-04-01T20:32:16;10.30;;;5.88;;
68072;SDS011;54862;51.502;7.446;2023-04-01T20:37:30;9.52;;;5.35;;
68072;SDS011;54862;51.502;7.446;2023-04-01T20:42:49;9.48;;;4.20;;
68072;SDS011;54862;51.502;7.446;2023-04-01T20:50:48;7.72;;;4.13;;
68072;SDS011;54862;51.502;7.446;2023-04-01T20:53:20;8.23;;;4.13;;
68072;SDS011;54862;51.502;7.446;2023-04-01T21:16:58;8.60;;;4.00;;
68072;SDS011;54862;51.502;7.446;2023-04-01T21:22:17;7.53;;;3.90;;
68072;SDS011;54862;51.502;7.446;2023-04-01T21:24:51;7.60;;;3.92;;
68072;SDS011;54862;51.502;7.446;2023-04-01T21:32:33;6.75;;;3.78;;
68072;SDS011;54862;51.502;7.446;2023-04-01T21:37:48;8.13;;;4.45;;
68072;SDS011;54862;51.502;7.446;2023-04-01T21:43:03;8.35;;;4.25;;
68072;SDS011;54862;51.502;7.446;2023-04-01T22:01:57;8.93;;;4.10;;
68072;SDS011;54862;51.502;7.446;2023-04-01T22:04:34;7.28;;;3.80;;
68072;SDS011;54862;51.502;7.446;2023-04-01T22:07:20;6.00;;;3.60;;
68072;SDS011;54862;51.502;7.446;2023-04-01T22:10:09;7.60;;;4.05;;
68072;SDS011;54862;51.502;7.446;2023-04-01T22:12:46;8.73;;;4.50;;
68072;SDS011;54862;51.502;7.446;2023-04-01T22:17:52;8.63;;;4.53;;
68072;SDS011;54862;51.502;7.446;2023-04-01T22:25:18;8.00;;;4.13;;
68072;SDS011;54862;51.502;7.446;2023-04-01T22:27:54;8.13;;;3.97;;
68072;SDS011;54862;51.502;7.446;2023-04-01T22:30:23;6.82;;;3.63;;
68072;SDS011;54862;51.502;7.446;2023-04-01T22:40:27;7.25;;;3.70;;
68072;SDS011;54862;51.502;7.446;2023-04-01T22:43:01;9.75;;;4.72;;
68072;SDS011;54862;51.502;7.446;2023-04-01T22:56:06;10.00;;;5.07;;
68072;SDS011;54862;51.502;7.446;2023-04-01T22:58:35;9.80;;;5.75;;
68072;SDS011;54862;51.502;7.446;2023-04-01T23:01:07;11.27;;;5.10;;
68072;SDS011;54862;51.502;7.446;2023-04-01T23:03:39;10.25;;;4.72;;
68072;SDS011;54862;51.502;7.446;2023-04-01T23:06:12;8.40;;;4.47;;
68072;SDS011;54862;51.502;7.446;2023-04-01T23:19:24;7.03;;;3.90;;
68072;SDS011;54862;51.502;7.446;2023-04-01T23:24:41;7.93;;;3.90;;
68072;SDS011;54862;51.502;7.446;2023-04-01T23:29:36;8.27;;;4.20;;
68072;SDS011;54862;51.502;7.446;2023-04-01T23:32:22;7.93;;;4.20;;
68072;SDS011;54862;51.502;7.446;2023-04-01T23:34:52;9.30;;;4.60;;
68072;SDS011;54862;51.502;7.446;2023-04-01T23:37:20;8.98;;;4.40;;
68072;SDS011;54862;51.502;7.446;2023-04-01T23:39:47;8.70;;;4.80;;
68072;SDS011;54862;51.502;7.446;2023-04-01T23:42:30;8.18;;;4.55;;
68072;SDS011;54862;51.502;7.446;2023-04-01T23:44:58;8.85;;;4.60;;
68072;SDS011;54862;51.502;7.446;2023-04-01T23:47:29;9.20;;;4.97;;
68072;SDS011;54862;51.502;7.446;2023-04-01T23:49:59;9.40;;;4.53;;
68072;SDS011;54862;51.502;7.446;2023-04-01T23:52:27;9.27;;;5.32;;
68072;SDS011;54862;51.502;7.446;2023-04-01T23:54:58;10.25;;;5.55;;
68072;SDS011;54862;51.502;7.446;2023-04-01T23:57:32;11.32;;;5.97;;
